sensor_id;sensor_type;location;lat;lon;timestamp;temperature;humidity
56498;DHT22;51790;45.558;12.076;2023-02-28T00:05:35;3.00;64.10
56498;DHT22;51790;45.558;12.076;2023-02-28T00:11:37;2.90;64.40
56498;DHT22;51790;45.558;12.076;2023-02-28T00:17:38;2.80;64.50
56498;DHT22;51790;45.558;12.076;2023-02-28T00:23:40;2.70;65.00
56498;DHT22;51790;45.558;12.076;2023-02-28T00:29:41;2.80;64.90
56498;DHT22;51790;45.558;12.076;2023-02-28T00:35:45;2.80;64.60
56498;DHT22;51790;45.558;12.076;2023-02-28T00:41:47;2.80;64.80
56498;DHT22;51790;45.558;12.076;2023-02-28T00:47:49;2.60;64.80
56498;DHT22;51790;45.558;12.076;2023-02-28T00:53:52;2.70;64.90
56498;DHT22;51790;45.558;12.076;2023-02-28T00:59:54;2.60;65.00
56498;DHT22;51790;45.558;12.076;2023-02-28T01:05:56;2.50;65.50
56498;DHT22;51790;45.558;12.076;2023-02-28T01:11:57;2.50;65.50
56498;DHT22;51790;45.558;12.076;2023-02-28T01:17:59;2.60;65.20
56498;DHT22;51790;45.558;12.076;2023-02-28T01:24:00;2.50;65.80
56498;DHT22;51790;45.558;12.076;2023-02-28T01:30:02;2.60;65.20
56498;DHT22;51790;45.558;12.076;2023-02-28T01:36:04;2.50;65.60
56498;DHT22;51790;45.558;12.076;2023-02-28T01:42:08;2.50;65.80
56498;DHT22;51790;45.558;12.076;2023-02-28T01:48:09;2.30;66.20
56498;DHT22;51790;45.558;12.076;2023-02-28T01:54:12;2.40;66.20
56498;DHT22;51790;45.558;12.076;2023-02-28T02:00:15;2.30;66.40
56498;DHT22;51790;45.558;12.076;2023-02-28T02:06:45;2.50;66.00
56498;DHT22;51790;45.558;12.076;2023-02-28T02:37:10;3.00;64.90
56498;DHT22;51790;45.558;12.076;2023-02-28T02:43:19;2.90;64.80
56498;DHT22;51790;45.558;12.076;2023-02-28T02:49:30;3.10;64.70
56498;DHT22;51790;45.558;12.076;2023-02-28T02:55:33;3.10;64.90
56498;DHT22;51790;45.558;12.076;2023-02-28T03:01:36;3.00;65.20
56498;DHT22;51790;45.558;12.076;2023-02-28T03:07:38;3.10;64.70
56498;DHT22;51790;45.558;12.076;2023-02-28T03:19:54;3.30;64.50
56498;DHT22;51790;45.558;12.076;2023-02-28T03:25:59;3.30;64.70
56498;DHT22;51790;45.558;12.076;2023-02-28T03:38:09;3.20;64.90
56498;DHT22;51790;45.558;12.076;2023-02-28T03:44:19;3.20;65.10
56498;DHT22;51790;45.558;12.076;2023-02-28T03:50:34;3.10;65.30
56498;DHT22;51790;45.558;12.076;2023-02-28T04:02:58;2.80;66.70
56498;DHT22;51790;45.558;12.076;2023-02-28T04:09:00;2.80;66.70
56498;DHT22;51790;45.558;12.076;2023-02-28T04:45:51;2.90;66.80
56498;DHT22;51790;45.558;12.076;2023-02-28T04:51:53;2.90;66.20
56498;DHT22;51790;45.558;12.076;2023-02-28T04:57:54;3.00;66.00
56498;DHT22;51790;45.558;12.076;2023-02-28T05:03:56;2.90;65.90
56498;DHT22;51790;45.558;12.076;2023-02-28T05:09:58;3.00;65.80
56498;DHT22;51790;45.558;12.076;2023-02-28T05:15:59;3.00;65.50
56498;DHT22;51790;45.558;12.076;2023-02-28T05:22:00;3.00;65.40
56498;DHT22;51790;45.558;12.076;2023-02-28T05:28:02;3.00;65.20
56498;DHT22;51790;45.558;12.076;2023-02-28T05:34:03;3.00;65.10
56498;DHT22;51790;45.558;12.076;2023-02-28T05:40:08;3.00;64.80
56498;DHT22;51790;45.558;12.076;2023-02-28T05:46:12;3.00;65.20
56498;DHT22;51790;45.558;12.076;2023-02-28T05:52:14;3.00;65.30
56498;DHT22;51790;45.558;12.076;2023-02-28T05:58:16;2.80;65.90
56498;DHT22;51790;45.558;12.076;2023-02-28T06:04:17;2.80;66.00
56498;DHT22;51790;45.558;12.076;2023-02-28T06:10:21;2.80;66.10
56498;DHT22;51790;45.558;12.076;2023-02-28T06:16:23;3.10;65.60
56498;DHT22;51790;45.558;12.076;2023-02-28T06:22:28;3.20;65.40
56498;DHT22;51790;45.558;12.076;2023-02-28T06:28:29;3.50;64.50
56498;DHT22;51790;45.558;12.076;2023-02-28T06:34:31;3.60;64.60
56498;DHT22;51790;45.558;12.076;2023-02-28T06:40:32;3.70;64.30
56498;DHT22;51790;45.558;12.076;2023-02-28T06:46:36;3.80;63.60
56498;DHT22;51790;45.558;12.076;2023-02-28T06:52:37;4.00;63.50
56498;DHT22;51790;45.558;12.076;2023-02-28T06:58:38;4.30;63.30
56498;DHT22;51790;45.558;12.076;2023-02-28T07:04:40;4.30;62.90
56498;DHT22;51790;45.558;12.076;2023-02-28T07:10:44;4.40;63.20
56498;DHT22;51790;45.558;12.076;2023-02-28T07:16:46;4.50;63.10
56498;DHT22;51790;45.558;12.076;2023-02-28T07:22:47;4.70;62.80
56498;DHT22;51790;45.558;12.076;2023-02-28T07:28:56;4.90;62.00
56498;DHT22;51790;45.558;12.076;2023-02-28T07:34:57;5.10;61.30
56498;DHT22;51790;45.558;12.076;2023-02-28T07:40:58;5.30;61.60
56498;DHT22;51790;45.558;12.076;2023-02-28T07:46:59;5.30;61.30
56498;DHT22;51790;45.558;12.076;2023-02-28T07:53:01;5.50;60.30
56498;DHT22;51790;45.558;12.076;2023-02-28T07:59:02;5.70;61.70
56498;DHT22;51790;45.558;12.076;2023-02-28T08:05:04;5.80;59.60
56498;DHT22;51790;45.558;12.076;2023-02-28T08:11:05;5.90;59.20
56498;DHT22;51790;45.558;12.076;2023-02-28T08:17:07;6.20;59.30
56498;DHT22;51790;45.558;12.076;2023-02-28T08:23:08;6.40;58.10
56498;DHT22;51790;45.558;12.076;2023-02-28T08:29:09;6.50;57.50
56498;DHT22;51790;45.558;12.076;2023-02-28T08:35:10;6.60;58.60
56498;DHT22;51790;45.558;12.076;2023-02-28T08:41:12;6.70;58.10
56498;DHT22;51790;45.558;12.076;2023-02-28T08:47:13;6.90;56.90
56498;DHT22;51790;45.558;12.076;2023-02-28T08:53:14;6.80;57.10
56498;DHT22;51790;45.558;12.076;2023-02-28T08:59:16;7.00;56.00
56498;DHT22;51790;45.558;12.076;2023-02-28T09:05:17;7.10;56.00
56498;DHT22;51790;45.558;12.076;2023-02-28T09:11:18;7.20;55.70
56498;DHT22;51790;45.558;12.076;2023-02-28T09:17:20;7.30;55.70
56498;DHT22;51790;45.558;12.076;2023-02-28T09:23:21;7.30;55.40
56498;DHT22;51790;45.558;12.076;2023-02-28T09:29:22;7.50;55.50
56498;DHT22;51790;45.558;12.076;2023-02-28T09:35:24;7.40;54.80
56498;DHT22;51790;45.558;12.076;2023-02-28T09:41:25;7.60;54.90
56498;DHT22;51790;45.558;12.076;2023-02-28T09:47:39;7.80;54.80
56498;DHT22;51790;45.558;12.076;2023-02-28T09:53:41;8.00;53.80
56498;DHT22;51790;45.558;12.076;2023-02-28T10:11:48;8.20;53.50
56498;DHT22;51790;45.558;12.076;2023-02-28T10:17:51;8.20;53.60
56498;DHT22;51790;45.558;12.076;2023-02-28T10:24:10;8.40;53.00
56498;DHT22;51790;45.558;12.076;2023-02-28T10:30:13;8.40;53.40
56498;DHT22;51790;45.558;12.076;2023-02-28T10:36:15;8.50;53.10
56498;DHT22;51790;45.558;12.076;2023-02-28T10:42:27;8.80;53.70
56498;DHT22;51790;45.558;12.076;2023-02-28T10:48:38;8.80;52.80
56498;DHT22;51790;45.558;12.076;2023-02-28T10:54:40;8.70;53.60
56498;DHT22;51790;45.558;12.076;2023-02-28T11:00:41;8.80;52.40
56498;DHT22;51790;45.558;12.076;2023-02-28T11:06:43;9.00;52.20
56498;DHT22;51790;45.558;12.076;2023-02-28T11:12:44;8.80;52.20
56498;DHT22;51790;45.558;12.076;2023-02-28T11:18:47;8.90;53.50
56498;DHT22;51790;45.558;12.076;2023-02-28T11:24:52;8.90;52.20
56498;DHT22;51790;45.558;12.076;2023-02-28T11:31:01;8.80;52.40
56498;DHT22;51790;45.558;12.076;2023-02-28T11:37:05;8.90;52.90
56498;DHT22;51790;45.558;12.076;2023-02-28T11:49:18;9.30;52.10
56498;DHT22;51790;45.558;12.076;2023-02-28T12:01:36;9.30;51.60
56498;DHT22;51790;45.558;12.076;2023-02-28T12:07:46;9.40;52.10
56498;DHT22;51790;45.558;12.076;2023-02-28T12:20:21;9.40;52.00
56498;DHT22;51790;45.558;12.076;2023-02-28T12:26:31;9.50;51.50
56498;DHT22;51790;45.558;12.076;2023-02-28T12:38:36;9.80;50.80
56498;DHT22;51790;45.558;12.076;2023-02-28T12:44:46;9.80;50.10
56498;DHT22;51790;45.558;12.076;2023-02-28T12:50:50;9.70;50.90
56498;DHT22;51790;45.558;12.076;2023-02-28T13:03:06;10.00;49.50
56498;DHT22;51790;45.558;12.076;2023-02-28T13:09:16;10.30;48.60
56498;DHT22;51790;45.558;12.076;2023-02-28T13:21:28;10.30;48.50
56498;DHT22;51790;45.558;12.076;2023-02-28T13:27:38;10.30;48.50
56498;DHT22;51790;45.558;12.076;2023-02-28T13:34:05;10.40;48.90
56498;DHT22;51790;45.558;12.076;2023-02-28T13:40:22;10.60;49.40
56498;DHT22;51790;45.558;12.076;2023-02-28T13:46:27;10.60;48.70
56498;DHT22;51790;45.558;12.076;2023-02-28T13:52:28;10.70;48.30
56498;DHT22;51790;45.558;12.076;2023-02-28T13:58:36;10.80;48.10
56498;DHT22;51790;45.558;12.076;2023-02-28T14:04:46;10.90;48.20
56498;DHT22;51790;45.558;12.076;2023-02-28T14:10:49;10.90;48.00
56498;DHT22;51790;45.558;12.076;2023-02-28T14:16:51;10.80;47.80
56498;DHT22;51790;45.558;12.076;2023-02-28T14:41:32;10.90;48.10
56498;DHT22;51790;45.558;12.076;2023-02-28T14:47:36;10.80;48.20
56498;DHT22;51790;45.558;12.076;2023-02-28T14:53:37;10.80;48.50
56498;DHT22;51790;45.558;12.076;2023-02-28T14:59:39;10.50;48.30
56498;DHT22;51790;45.558;12.076;2023-02-28T15:05:40;10.40;53.00
56498;DHT22;51790;45.558;12.076;2023-02-28T15:11:41;10.40;54.40
56498;DHT22;51790;45.558;12.076;2023-02-28T15:17:53;10.40;54.60
56498;DHT22;51790;45.558;12.076;2023-02-28T15:30:00;10.50;53.50
56498;DHT22;51790;45.558;12.076;2023-02-28T15:36:10;10.30;53.60
56498;DHT22;51790;45.558;12.076;2023-02-28T15:42:22;10.20;54.20
56498;DHT22;51790;45.558;12.076;2023-02-28T15:48:34;10.20;54.00
56498;DHT22;51790;45.558;12.076;2023-02-28T15:54:37;10.20;53.70
56498;DHT22;51790;45.558;12.076;2023-02-28T16:00:40;10.10;54.40
56498;DHT22;51790;45.558;12.076;2023-02-28T16:06:45;9.80;54.70
56498;DHT22;51790;45.558;12.076;2023-02-28T16:12:47;9.80;55.50
56498;DHT22;51790;45.558;12.076;2023-02-28T16:18:48;9.60;55.70
56498;DHT22;51790;45.558;12.076;2023-02-28T16:24:49;9.50;56.00
56498;DHT22;51790;45.558;12.076;2023-02-28T16:30:51;9.20;56.80
56498;DHT22;51790;45.558;12.076;2023-02-28T16:36:53;8.80;57.70
56498;DHT22;51790;45.558;12.076;2023-02-28T16:42:57;8.60;58.70
56498;DHT22;51790;45.558;12.076;2023-02-28T16:48:59;8.40;59.40
56498;DHT22;51790;45.558;12.076;2023-02-28T16:55:00;8.20;60.30
56498;DHT22;51790;45.558;12.076;2023-02-28T17:01:02;8.10;60.70
56498;DHT22;51790;45.558;12.076;2023-02-28T17:07:04;7.80;61.50
56498;DHT22;51790;45.558;12.076;2023-02-28T17:13:05;7.50;62.60
56498;DHT22;51790;45.558;12.076;2023-02-28T17:19:13;7.30;63.40
56498;DHT22;51790;45.558;12.076;2023-02-28T17:25:14;7.20;64.20
56498;DHT22;51790;45.558;12.076;2023-02-28T17:31:16;7.10;63.90
56498;DHT22;51790;45.558;12.076;2023-02-28T17:37:17;6.90;64.40
56498;DHT22;51790;45.558;12.076;2023-02-28T17:43:18;6.90;63.70
56498;DHT22;51790;45.558;12.076;2023-02-28T17:49:20;6.80;62.80
56498;DHT22;51790;45.558;12.076;2023-02-28T17:55:21;6.70;63.40
56498;DHT22;51790;45.558;12.076;2023-02-28T18:01:23;6.70;61.50
56498;DHT22;51790;45.558;12.076;2023-02-28T18:07:26;6.50;61.70
56498;DHT22;51790;45.558;12.076;2023-02-28T18:13:27;6.30;62.40
56498;DHT22;51790;45.558;12.076;2023-02-28T18:19:28;6.10;62.50
56498;DHT22;51790;45.558;12.076;2023-02-28T18:25:29;6.20;62.20
56498;DHT22;51790;45.558;12.076;2023-02-28T18:31:31;6.00;62.20
56498;DHT22;51790;45.558;12.076;2023-02-28T18:37:32;6.00;62.30
56498;DHT22;51790;45.558;12.076;2023-02-28T18:43:35;5.80;63.10
56498;DHT22;51790;45.558;12.076;2023-02-28T18:49:36;5.80;63.20
56498;DHT22;51790;45.558;12.076;2023-02-28T18:55:38;5.70;63.70
56498;DHT22;51790;45.558;12.076;2023-02-28T19:01:39;5.60;63.60
56498;DHT22;51790;45.558;12.076;2023-02-28T19:07:41;5.40;64.20
56498;DHT22;51790;45.558;12.076;2023-02-28T19:13:42;5.40;64.40
56498;DHT22;51790;45.558;12.076;2023-02-28T19:19:44;5.30;64.70
56498;DHT22;51790;45.558;12.076;2023-02-28T19:25:45;5.20;64.90
56498;DHT22;51790;45.558;12.076;2023-02-28T19:31:47;5.20;65.20
56498;DHT22;51790;45.558;12.076;2023-02-28T19:37:49;5.10;65.50
56498;DHT22;51790;45.558;12.076;2023-02-28T19:43:52;5.00;66.00
56498;DHT22;51790;45.558;12.076;2023-02-28T19:49:55;4.90;66.30
56498;DHT22;51790;45.558;12.076;2023-02-28T19:55:56;4.90;66.20
56498;DHT22;51790;45.558;12.076;2023-02-28T20:01:57;5.00;65.60
56498;DHT22;51790;45.558;12.076;2023-02-28T20:14:52;4.80;66.20
56498;DHT22;51790;45.558;12.076;2023-02-28T20:20:55;4.70;66.20
56498;DHT22;51790;45.558;12.076;2023-02-28T20:26:57;4.80;65.70
56498;DHT22;51790;45.558;12.076;2023-02-28T20:32:58;4.90;65.10
56498;DHT22;51790;45.558;12.076;2023-02-28T20:39:00;4.70;65.80
56498;DHT22;51790;45.558;12.076;2023-02-28T20:45:02;4.50;66.40
56498;DHT22;51790;45.558;12.076;2023-02-28T20:51:04;4.50;66.30
56498;DHT22;51790;45.558;12.076;2023-02-28T20:57:05;4.40;66.60
56498;DHT22;51790;45.558;12.076;2023-02-28T21:03:07;4.50;66.30
56498;DHT22;51790;45.558;12.076;2023-02-28T21:09:09;4.30;66.80
56498;DHT22;51790;45.558;12.076;2023-02-28T21:15:10;4.30;67.10
56498;DHT22;51790;45.558;12.076;2023-02-28T21:21:13;4.10;67.90
56498;DHT22;51790;45.558;12.076;2023-02-28T21:27:15;4.00;68.30
56498;DHT22;51790;45.558;12.076;2023-02-28T21:33:16;4.00;68.30
56498;DHT22;51790;45.558;12.076;2023-02-28T21:39:19;3.90;68.80
56498;DHT22;51790;45.558;12.076;2023-02-28T21:45:23;3.80;69.10
56498;DHT22;51790;45.558;12.076;2023-02-28T21:51:26;3.80;68.60
56498;DHT22;51790;45.558;12.076;2023-02-28T21:57:28;3.70;68.70
56498;DHT22;51790;45.558;12.076;2023-02-28T22:03:29;3.70;68.70
56498;DHT22;51790;45.558;12.076;2023-02-28T22:16:55;3.60;69.00
56498;DHT22;51790;45.558;12.076;2023-02-28T22:22:57;3.70;68.00
56498;DHT22;51790;45.558;12.076;2023-02-28T22:28:58;3.80;68.40
56498;DHT22;51790;45.558;12.076;2023-02-28T22:35:00;3.90;67.00
56498;DHT22;51790;45.558;12.076;2023-02-28T22:41:02;3.80;67.40
56498;DHT22;51790;45.558;12.076;2023-02-28T22:47:04;3.80;67.60
56498;DHT22;51790;45.558;12.076;2023-02-28T22:53:05;3.80;67.50
56498;DHT22;51790;45.558;12.076;2023-02-28T22:59:06;3.80;67.70
56498;DHT22;51790;45.558;12.076;2023-02-28T23:05:08;3.80;67.10
56498;DHT22;51790;45.558;12.076;2023-02-28T23:11:10;3.90;66.90
56498;DHT22;51790;45.558;12.076;2023-02-28T23:17:17;3.70;67.70
56498;DHT22;51790;45.558;12.076;2023-02-28T23:23:23;3.80;67.30
56498;DHT22;51790;45.558;12.076;2023-02-28T23:29:24;3.70;67.90
56498;DHT22;51790;45.558;12.076;2023-02-28T23:35:27;3.60;67.90
56498;DHT22;51790;45.558;12.076;2023-02-28T23:41:28;3.50;68.30
56498;DHT22;51790;45.558;12.076;2023-02-28T23:47:30;3.50;68.30
56498;DHT22;51790;45.558;12.076;2023-02-28T23:53:33;3.50;68.50
56498;DHT22;51790;45.558;12.076;2023-02-28T23:59:34;3.40;68.50
